createdAt,value
2022-12-20T00:02:40.950Z,9.4
2022-12-20T00:04:40.527Z,9.6
2022-12-20T00:06:43.570Z,9.6
2022-12-20T00:08:43.284Z,9.7
2022-12-20T00:14:42.367Z,9.8
2022-12-20T00:16:42.033Z,9.8
2022-12-20T00:18:41.739Z,9.7
2022-12-20T00:20:44.824Z,10.1
2022-12-20T00:22:44.489Z,10.1
2022-12-20T00:24:44.166Z,10.1
2022-12-20T00:26:43.888Z,10
2022-12-20T00:28:43.530Z,10.1
2022-12-20T00:30:43.240Z,10.1
2022-12-20T00:32:42.867Z,10.1
2022-12-20T00:34:45.911Z,10
2022-12-20T00:36:45.622Z,10.1
2022-12-20T00:38:45.319Z,10.2
2022-12-20T00:41:00.527Z,10.1
2022-12-20T00:43:00.197Z,10.1
2022-12-20T00:44:59.867Z,10.2
2022-12-20T00:47:03.083Z,10.2
2022-12-20T00:49:02.650Z,10.2
2022-12-20T00:51:02.309Z,10.1
2022-12-20T00:53:02.000Z,10.1
2022-12-20T00:55:01.673Z,10.2
2022-12-20T00:57:01.363Z,10.3
2022-12-20T00:59:01.003Z,10.4
2022-12-20T01:01:04.127Z,10.6
2022-12-20T01:03:03.824Z,10.7
2022-12-20T01:05:03.396Z,10.6
2022-12-20T01:07:03.024Z,10.8
2022-12-20T01:09:02.686Z,10.8
2022-12-20T01:15:05.131Z,10.9
2022-12-20T01:17:04.796Z,10.8
2022-12-20T01:19:04.478Z,10.9
2022-12-20T01:21:04.124Z,10.9
2022-12-20T01:23:03.793Z,10.9
2022-12-20T01:25:03.437Z,11
2022-12-20T01:27:03.102Z,11.2
2022-12-20T01:29:06.136Z,11.1
2022-12-20T01:31:05.777Z,11.1
2022-12-20T01:33:05.422Z,11.2
2022-12-20T01:34:06.945Z,11.2
2022-12-20T01:36:08.147Z,11.3
2022-12-20T01:38:07.748Z,11.3
2022-12-20T01:42:10.421Z,11.1
2022-12-20T01:44:10.059Z,11.2
2022-12-20T01:46:09.792Z,11.2
2022-12-20T01:48:09.348Z,11.1
2022-12-20T01:50:08.979Z,11.1
2022-12-20T01:52:08.630Z,11
2022-12-20T01:54:08.293Z,10.8
2022-12-20T01:56:11.337Z,10.7
2022-12-20T01:58:10.924Z,10.7
2022-12-20T02:06:09.503Z,10.5
2022-12-20T02:10:12.218Z,10.4
2022-12-20T02:12:11.904Z,10.2
2022-12-20T02:14:11.545Z,10.2
2022-12-20T02:16:11.252Z,10.2
2022-12-20T02:18:10.845Z,10.1
2022-12-20T02:20:10.501Z,10.1
2022-12-20T02:22:10.179Z,10
2022-12-20T02:24:13.305Z,10
2022-12-20T02:26:12.932Z,10
2022-12-20T02:28:12.603Z,9.9
2022-12-20T02:31:13.808Z,9.9
2022-12-20T02:33:13.467Z,9.9
2022-12-20T02:35:13.152Z,9.9
2022-12-20T02:37:16.204Z,9.8
2022-12-20T02:39:15.853Z,9.8
2022-12-20T02:41:15.560Z,9.7
2022-12-20T02:43:15.231Z,9.6
2022-12-20T02:45:14.871Z,9.6
2022-12-20T02:47:14.575Z,9.6
2022-12-20T02:49:14.270Z,9.6
2022-12-20T02:51:17.322Z,9.6
2022-12-20T02:53:17.029Z,9.6
2022-12-20T02:55:16.678Z,9.5
2022-12-20T02:57:16.361Z,9.6
2022-12-20T02:59:16.047Z,9.6
2022-12-20T03:01:15.866Z,9.5
2022-12-20T03:03:15.566Z,9.5
2022-12-20T03:05:18.490Z,9.4
2022-12-20T03:07:18.168Z,9.4
2022-12-20T03:09:17.838Z,9.4
2022-12-20T03:11:17.557Z,9.4
2022-12-20T03:13:17.268Z,9.4
2022-12-20T03:15:16.880Z,9.4
2022-12-20T03:17:16.668Z,9.4
2022-12-20T03:19:19.680Z,9.5
2022-12-20T03:21:19.372Z,9.5
2022-12-20T03:23:19.035Z,9.4
2022-12-20T03:24:20.579Z,9.5
2022-12-20T03:26:20.282Z,9.5
2022-12-20T03:28:19.950Z,9.6
2022-12-20T03:30:19.654Z,9.5
2022-12-20T03:32:22.789Z,9.5
2022-12-20T03:34:22.465Z,9.5
2022-12-20T03:36:22.121Z,9.5
2022-12-20T03:38:21.813Z,9.4
2022-12-20T03:40:21.502Z,9.5
2022-12-20T03:42:21.153Z,9.4
2022-12-20T03:44:20.940Z,9.3
2022-12-20T03:46:23.981Z,9.2
2022-12-20T03:48:23.622Z,9.2
2022-12-20T03:50:23.284Z,9.3
2022-12-20T03:52:22.973Z,9.4
2022-12-20T03:54:22.646Z,9.3
2022-12-20T04:00:25.137Z,9.3
2022-12-20T04:02:24.948Z,9.3
2022-12-20T04:04:24.454Z,9.2
2022-12-20T04:12:23.201Z,9.3
2022-12-20T04:16:25.990Z,9.3
2022-12-20T04:18:25.603Z,9.3
2022-12-20T04:22:46.790Z,9.4
2022-12-20T04:24:46.460Z,9.5
2022-12-20T04:26:49.573Z,9.6
2022-12-20T04:28:49.273Z,9.6
2022-12-20T04:30:48.998Z,9.6
2022-12-20T04:32:48.619Z,9.6
2022-12-20T04:34:48.335Z,9.6
2022-12-20T04:36:48.000Z,9.7
2022-12-20T04:38:47.693Z,9.6
2022-12-20T04:40:50.779Z,9.7
2022-12-20T04:42:50.435Z,9.8
2022-12-20T04:44:50.149Z,9.7
2022-12-20T04:46:49.876Z,9.8
2022-12-20T04:48:58.486Z,9.8
2022-12-20T04:50:49.158Z,9.9
2022-12-20T04:52:48.858Z,9.9
2022-12-20T04:54:51.961Z,10
2022-12-20T04:56:51.627Z,10
2022-12-20T05:02:50.893Z,9.9
2022-12-20T05:04:50.357Z,10.1
2022-12-20T05:06:49.983Z,10.1
2022-12-20T05:08:53.087Z,10.1
2022-12-20T05:10:52.757Z,10.1
2022-12-20T05:13:53.992Z,10.2
2022-12-20T05:15:53.725Z,10.2
2022-12-20T05:17:53.311Z,10.1
2022-12-20T05:19:52.996Z,10.2
2022-12-20T05:21:56.059Z,10.4
2022-12-20T05:23:55.774Z,10.4
2022-12-20T05:25:55.432Z,10.3
2022-12-20T05:27:55.118Z,10.4
2022-12-20T05:29:54.734Z,10.3
2022-12-20T05:31:54.524Z,10.2
2022-12-20T05:33:54.137Z,10.2
2022-12-20T05:37:56.810Z,10.1
2022-12-20T05:39:56.535Z,9.9
2022-12-20T05:41:56.189Z,9.9
2022-12-20T05:43:55.881Z,10
2022-12-20T05:45:55.531Z,10
2022-12-20T05:47:55.171Z,10
2022-12-20T05:49:58.272Z,10
2022-12-20T05:51:57.937Z,10
2022-12-20T05:53:57.604Z,10.1
2022-12-20T05:55:57.274Z,10.1
2022-12-20T05:57:56.953Z,10
2022-12-20T05:59:56.596Z,9.9
2022-12-20T06:01:56.387Z,10
2022-12-20T06:03:59.473Z,10
2022-12-20T06:05:59.056Z,9.9
2022-12-20T06:07:58.699Z,9.9
2022-12-20T06:09:00.244Z,9.8
2022-12-20T06:12:59.540Z,9.9
2022-12-20T06:14:59.272Z,9.8
2022-12-20T06:17:02.273Z,9.8
2022-12-20T06:19:01.929Z,9.8
2022-12-20T06:21:01.604Z,9.8
2022-12-20T06:23:01.249Z,9.8
2022-12-20T06:25:00.970Z,9.8
2022-12-20T06:27:00.605Z,9.7
2022-12-20T06:29:00.240Z,9.8
2022-12-20T06:31:03.335Z,9.9
2022-12-20T06:33:02.970Z,9.8
2022-12-20T06:35:02.656Z,9.9
2022-12-20T06:39:06.128Z,9.8
2022-12-20T06:41:01.587Z,9.9
2022-12-20T06:43:01.301Z,9.9
2022-12-20T06:45:04.338Z,9.8
2022-12-20T06:47:04.000Z,9.9
2022-12-20T06:49:03.686Z,9.8
2022-12-20T06:51:03.358Z,9.8
2022-12-20T06:53:03.041Z,9.8
2022-12-20T06:55:02.705Z,9.7
2022-12-20T06:57:02.389Z,9.8
2022-12-20T06:59:05.427Z,9.7
2022-12-20T07:01:05.165Z,9.7
2022-12-20T07:03:04.847Z,9.7
2022-12-20T07:04:06.324Z,9.6
2022-12-20T07:06:05.991Z,9.7
2022-12-20T07:12:08.422Z,9.6
2022-12-20T07:18:07.394Z,9.6
2022-12-20T07:22:08.320Z,9.6
2022-12-20T07:26:11.017Z,9.6
2022-12-20T07:32:10.170Z,9.6
2022-12-20T07:34:09.701Z,9.7
2022-12-20T07:36:09.334Z,9.7
2022-12-20T07:42:11.810Z,9.7
2022-12-20T07:44:11.842Z,9.7
2022-12-20T07:46:11.196Z,9.7
2022-12-20T07:48:15.710Z,9.7
2022-12-20T07:50:10.476Z,9.8
2022-12-20T07:52:10.121Z,9.8
2022-12-20T07:54:13.255Z,9.9
2022-12-20T07:56:12.923Z,9.9
2022-12-20T07:58:12.562Z,9.9
2022-12-20T08:00:31.981Z,10
2022-12-20T08:02:31.930Z,10
2022-12-20T08:04:31.260Z,10
2022-12-20T08:06:34.335Z,10
2022-12-20T08:08:34.023Z,10
2022-12-20T08:10:33.673Z,10.1
2022-12-20T08:12:33.342Z,10.2
2022-12-20T08:14:33.025Z,10.2
2022-12-20T08:16:32.711Z,10.2
2022-12-20T08:18:32.408Z,10.2
2022-12-20T08:20:35.505Z,10.2
2022-12-20T08:22:35.151Z,10.3
2022-12-20T08:24:34.823Z,10.3
2022-12-20T08:26:34.488Z,10.3
2022-12-20T08:28:34.203Z,10.4
2022-12-20T08:30:33.871Z,10.5
2022-12-20T08:32:33.531Z,10.5
2022-12-20T08:34:36.615Z,10.4
2022-12-20T08:36:36.279Z,10.5
2022-12-20T08:38:35.925Z,10.5
2022-12-20T08:40:35.641Z,10.7
2022-12-20T08:42:35.276Z,10.7
2022-12-20T08:44:34.941Z,10.7
2022-12-20T08:46:34.680Z,10.7
2022-12-20T08:48:37.656Z,10.7
2022-12-20T08:50:37.313Z,10.7
2022-12-20T08:52:37.004Z,10.8
2022-12-20T08:53:38.519Z,10.8
2022-12-20T08:55:38.169Z,10.8
2022-12-20T08:57:37.889Z,10.8
2022-12-20T08:59:37.557Z,10.8
2022-12-20T09:01:40.790Z,10.8
2022-12-20T09:03:40.349Z,10.8
2022-12-20T09:05:39.936Z,10.8
2022-12-20T09:15:41.675Z,10.7
2022-12-20T09:17:41.328Z,10.7
2022-12-20T09:29:42.669Z,10.5
2022-12-20T09:33:42.063Z,10.5
2022-12-20T09:35:41.679Z,10.5
2022-12-20T09:37:41.333Z,10.4
2022-12-20T09:47:43.133Z,10.1
2022-12-20T09:48:44.672Z,10.1
2022-12-20T09:50:44.359Z,10.1
2022-12-20T09:52:44.036Z,10.1
2022-12-20T09:54:43.714Z,10.1
2022-12-20T09:56:46.791Z,10.1
2022-12-20T09:58:46.457Z,10
2022-12-20T10:00:51.869Z,10.1
2022-12-20T10:06:45.141Z,10.1
2022-12-20T10:08:44.818Z,10.1
2022-12-20T10:14:47.221Z,9.9
2022-12-20T10:16:46.896Z,9.9
2022-12-20T10:18:46.580Z,9.9
2022-12-20T10:20:46.225Z,10
2022-12-20T10:22:45.936Z,10
2022-12-20T10:24:48.965Z,10
2022-12-20T10:26:48.673Z,10
2022-12-20T10:28:53.830Z,10
2022-12-20T10:30:48.035Z,10
2022-12-20T10:32:47.681Z,10
2022-12-20T10:34:48.761Z,10
2022-12-20T10:36:47.042Z,10
2022-12-20T10:43:50.971Z,9.9
2022-12-20T10:45:50.686Z,9.8
2022-12-20T10:47:50.359Z,9.9
2022-12-20T10:51:53.096Z,9.8
2022-12-20T10:53:52.750Z,9.8
2022-12-20T10:55:52.429Z,9.8
2022-12-20T10:57:52.087Z,9.8
2022-12-20T10:59:51.774Z,9.9
2022-12-20T11:01:51.568Z,9.9
2022-12-20T11:03:51.188Z,9.9
2022-12-20T11:05:54.220Z,9.9
2022-12-20T11:09:53.588Z,9.9
2022-12-20T11:11:53.236Z,9.9
2022-12-20T11:13:52.944Z,10
2022-12-20T11:15:52.679Z,9.9
2022-12-20T11:17:52.288Z,10
2022-12-20T11:19:55.371Z,10
2022-12-20T11:21:55.015Z,10
2022-12-20T11:23:54.690Z,10
2022-12-20T11:25:54.392Z,10.1
2022-12-20T11:27:54.059Z,10.1
2022-12-20T11:29:53.717Z,10.1
2022-12-20T11:31:53.530Z,10.1
2022-12-20T11:33:56.478Z,10.1
2022-12-20T11:35:56.238Z,10.1
2022-12-20T11:37:55.867Z,10.1
2022-12-20T11:40:17.328Z,10.1
2022-12-20T11:42:17.004Z,10.1
2022-12-20T11:44:26.341Z,10.1
2022-12-20T11:46:19.856Z,10.1
2022-12-20T11:48:19.431Z,10.1
2022-12-20T11:50:19.179Z,10.2
2022-12-20T11:52:18.811Z,10.1
2022-12-20T11:58:19.283Z,10.1
2022-12-20T12:00:20.913Z,10.2
2022-12-20T12:02:20.687Z,10.2
2022-12-20T12:04:20.316Z,10.2
2022-12-20T12:06:20.027Z,10.2
2022-12-20T12:10:19.279Z,10.2
2022-12-20T12:12:18.960Z,10.2
2022-12-20T12:14:22.031Z,10.2
2022-12-20T12:16:21.730Z,10.2
2022-12-20T12:18:21.377Z,10.2
2022-12-20T12:20:21.011Z,10.2
2022-12-20T12:22:20.674Z,10.3
2022-12-20T12:24:20.359Z,10.3
2022-12-20T12:26:20.039Z,10.3
2022-12-20T12:28:23.100Z,10.2
2022-12-20T12:30:22.760Z,10.2
2022-12-20T12:32:22.460Z,10.1
2022-12-20T12:33:25.429Z,10.1
2022-12-20T12:35:23.618Z,10.2
2022-12-20T12:37:23.263Z,10.2
2022-12-20T12:39:22.970Z,10.2
2022-12-20T12:41:26.020Z,10.1
2022-12-20T12:45:25.412Z,10.2
2022-12-20T12:47:25.036Z,10.2
2022-12-20T12:49:24.740Z,10.2
2022-12-20T12:53:24.074Z,10.3
2022-12-20T12:55:27.140Z,10.3
2022-12-20T12:57:26.793Z,10.3
2022-12-20T13:05:26.172Z,10.4
2022-12-20T13:07:26.705Z,10.4
2022-12-20T13:17:28.457Z,10.4
2022-12-20T13:19:28.096Z,10.4
2022-12-20T13:21:27.759Z,10.4
2022-12-20T13:23:30.843Z,10.4
2022-12-20T13:27:30.148Z,10.3
2022-12-20T13:28:31.696Z,10.3
2022-12-20T13:30:31.430Z,10.3
2022-12-20T13:38:33.381Z,10.3
2022-12-20T13:40:33.084Z,10.2
2022-12-20T13:42:32.734Z,10.3
2022-12-20T13:44:32.458Z,10.3
2022-12-20T13:46:32.144Z,10.3
2022-12-20T13:48:31.805Z,10.3
2022-12-20T13:50:34.862Z,10.4
2022-12-20T13:52:34.493Z,10.3
2022-12-20T13:54:34.209Z,10.3
2022-12-20T13:56:33.859Z,10.3
2022-12-20T13:58:33.542Z,10.3
2022-12-20T14:00:33.225Z,10.3
2022-12-20T14:02:33.028Z,10.3
2022-12-20T14:04:36.005Z,10.3
2022-12-20T14:06:35.601Z,10.3
2022-12-20T14:08:35.228Z,10.3
2022-12-20T14:12:36.976Z,10.3
2022-12-20T14:14:34.281Z,10.3
2022-12-20T14:16:33.994Z,10.2
2022-12-20T14:18:37.007Z,10.3
2022-12-20T14:20:36.687Z,10.3
2022-12-20T14:22:36.342Z,10.3
2022-12-20T14:23:37.881Z,10.3
2022-12-20T14:25:37.530Z,10.2
2022-12-20T14:27:37.234Z,10.3
2022-12-20T14:31:39.917Z,10.3
2022-12-20T14:33:39.593Z,10.3
2022-12-20T14:39:38.573Z,10.3
2022-12-20T14:41:38.263Z,10.3
2022-12-20T14:43:37.997Z,10.3
2022-12-20T14:45:40.990Z,10.3
2022-12-20T14:47:40.679Z,10.3
2022-12-20T14:49:40.330Z,10.3
2022-12-20T14:51:40.044Z,10.3
2022-12-20T14:53:39.675Z,10.3
2022-12-20T14:55:39.339Z,10.3
2022-12-20T14:57:39.002Z,10.3
2022-12-20T14:59:42.148Z,10.2
2022-12-20T15:01:44.260Z,10.3
2022-12-20T15:03:41.515Z,10.2
2022-12-20T15:09:40.432Z,10.2
2022-12-20T15:11:40.075Z,10.2
2022-12-20T15:13:43.162Z,10.2
2022-12-20T15:15:42.826Z,10.2
2022-12-20T15:17:42.470Z,10.2
2022-12-20T15:20:01.882Z,10.2
2022-12-20T15:22:01.524Z,10.2
2022-12-20T15:24:01.141Z,10.2
2022-12-20T15:26:04.240Z,10.2
2022-12-20T15:28:03.898Z,10.2
2022-12-20T15:30:03.594Z,10.2
2022-12-20T15:32:03.278Z,10.2
2022-12-20T15:34:02.887Z,10.2
2022-12-20T15:36:02.520Z,10.2
2022-12-20T15:38:02.223Z,10.2
2022-12-20T15:40:05.302Z,10.2
2022-12-20T15:42:04.946Z,10.2
2022-12-20T15:44:04.628Z,10.2
2022-12-20T15:46:04.358Z,10.2
2022-12-20T15:48:03.968Z,10.3
2022-12-20T15:50:03.649Z,10.2
2022-12-20T15:52:03.313Z,10.2
2022-12-20T15:54:06.357Z,10.1
2022-12-20T15:56:06.012Z,10
2022-12-20T15:58:05.676Z,10
2022-12-20T16:00:05.460Z,10.1
2022-12-20T16:02:05.133Z,10.2
2022-12-20T16:04:04.776Z,10.1
2022-12-20T16:06:04.320Z,10
2022-12-20T16:08:07.381Z,10.1
2022-12-20T16:10:07.012Z,10
2022-12-20T16:12:06.649Z,10.1
2022-12-20T16:13:08.187Z,10.2
2022-12-20T16:15:07.839Z,10.1
2022-12-20T16:17:07.533Z,10
2022-12-20T16:19:07.146Z,10
2022-12-20T16:21:10.231Z,10.2
2022-12-20T16:23:09.859Z,10
2022-12-20T16:25:11.119Z,10.1
2022-12-20T16:27:09.157Z,10.1
2022-12-20T16:29:08.795Z,10
2022-12-20T16:31:08.479Z,10.1
2022-12-20T16:33:08.093Z,10.1
2022-12-20T16:37:10.810Z,10.1
2022-12-20T16:41:10.122Z,10.1
2022-12-20T16:51:11.828Z,9.9
2022-12-20T16:53:11.486Z,9.9
2022-12-20T16:55:11.132Z,10
2022-12-20T16:57:10.781Z,9.9
2022-12-20T16:59:20.187Z,9.9
2022-12-20T17:03:13.187Z,10
2022-12-20T17:05:12.794Z,10
2022-12-20T17:07:12.494Z,9.9
2022-12-20T17:10:13.660Z,10
2022-12-20T17:12:13.357Z,10
2022-12-20T17:14:13.216Z,9.9
2022-12-20T17:16:16.070Z,9.9
2022-12-20T17:18:15.690Z,10
2022-12-20T17:22:22.241Z,9.9
2022-12-20T17:24:14.627Z,10
2022-12-20T17:26:14.295Z,9.9
2022-12-20T17:28:13.949Z,10
2022-12-20T17:30:17.051Z,10
2022-12-20T17:32:16.730Z,10
2022-12-20T17:34:16.412Z,9.9
2022-12-20T17:36:16.034Z,10
2022-12-20T17:38:15.709Z,9.8
2022-12-20T17:40:15.387Z,9.9
2022-12-20T17:42:15.063Z,9.9
2022-12-20T17:44:18.132Z,10
2022-12-20T17:46:17.888Z,9.8
2022-12-20T17:48:17.481Z,9.8
2022-12-20T17:50:17.147Z,9.8
2022-12-20T17:52:16.817Z,9.8
2022-12-20T17:54:16.515Z,9.9
2022-12-20T17:56:16.180Z,9.9
2022-12-20T17:58:19.265Z,9.7
2022-12-20T18:02:18.841Z,9.9
2022-12-20T18:07:19.520Z,9.9
2022-12-20T18:09:19.187Z,9.7
2022-12-20T18:11:22.261Z,9.8
2022-12-20T18:13:21.929Z,9.7
2022-12-20T18:15:21.575Z,9.7
2022-12-20T18:17:21.455Z,9.9
2022-12-20T18:19:20.953Z,9.7
2022-12-20T18:21:20.631Z,9.8
2022-12-20T18:23:20.297Z,9.8
2022-12-20T18:25:23.361Z,9.8
2022-12-20T18:27:28.688Z,9.7
2022-12-20T18:29:22.729Z,9.9
2022-12-20T18:31:22.437Z,9.8
2022-12-20T18:41:24.172Z,9.8
2022-12-20T18:43:23.831Z,9.8
2022-12-20T18:45:23.558Z,9.8
2022-12-20T18:47:23.182Z,9.7
2022-12-20T18:49:22.874Z,9.8
2022-12-20T18:51:22.548Z,9.7
2022-12-20T18:53:27.213Z,9.7
2022-12-20T18:59:48.070Z,9.9
2022-12-20T19:03:47.416Z,9.9
2022-12-20T19:05:50.456Z,9.7
2022-12-20T19:09:49.834Z,9.8
2022-12-20T19:11:56.288Z,9.7
2022-12-20T19:23:50.889Z,9.7
2022-12-20T19:29:49.836Z,9.7
2022-12-20T19:31:49.636Z,9.7
2022-12-20T19:33:52.566Z,9.7
2022-12-20T19:35:56.374Z,9.7
2022-12-20T19:39:51.597Z,9.6
2022-12-20T19:42:21.760Z,9.6
2022-12-20T19:43:50.938Z,9.8
2022-12-20T19:45:50.715Z,9.7
2022-12-20T19:47:53.658Z,9.7
2022-12-20T19:49:53.334Z,9.6
2022-12-20T19:51:53.027Z,9.5
2022-12-20T19:52:54.602Z,9.7
2022-12-20T19:54:54.227Z,9.7
2022-12-20T19:56:53.878Z,9.6
2022-12-20T19:58:53.591Z,9.7
2022-12-20T20:00:56.621Z,9.7
2022-12-20T20:02:56.555Z,9.6
2022-12-20T20:04:55.945Z,9.7
2022-12-20T20:06:55.636Z,9.7
2022-12-20T20:08:55.301Z,9.5
2022-12-20T20:12:54.714Z,9.7
2022-12-20T20:14:57.750Z,9.6
2022-12-20T20:16:57.469Z,9.7
2022-12-20T20:18:57.196Z,9.7
2022-12-20T20:20:56.799Z,9.7
2022-12-20T20:24:56.169Z,9.7
2022-12-20T20:26:55.853Z,9.7
2022-12-20T20:28:58.927Z,9.5
2022-12-20T20:30:58.679Z,9.7
2022-12-20T20:32:58.283Z,9.6
2022-12-20T20:34:57.943Z,9.7
2022-12-20T20:36:57.625Z,9.6
2022-12-20T20:38:57.343Z,9.6
2022-12-20T20:40:57.009Z,9.6
2022-12-20T20:43:00.125Z,9.7
2022-12-20T20:44:59.768Z,9.5
2022-12-20T20:46:59.498Z,9.5
2022-12-20T20:48:05.747Z,9.5
2022-12-20T20:58:02.819Z,9.4
2022-12-20T21:02:02.258Z,9.5
2022-12-20T21:04:01.875Z,9.4
2022-12-20T21:08:01.221Z,9.5
2022-12-20T21:10:04.440Z,9.5
2022-12-20T21:12:04.146Z,9.5
2022-12-20T21:14:03.682Z,9.4
2022-12-20T21:16:03.397Z,9.6
2022-12-20T21:18:03.033Z,9.5
2022-12-20T21:20:02.690Z,9.5
2022-12-20T21:22:02.372Z,9.4
2022-12-20T21:24:05.428Z,9.4
2022-12-20T21:26:05.117Z,9.5
2022-12-20T21:28:04.793Z,9.4
2022-12-20T21:30:04.480Z,9.4
2022-12-20T21:38:06.606Z,9.4
2022-12-20T21:42:05.977Z,9.4
2022-12-20T21:43:07.497Z,9.5
2022-12-20T21:45:07.163Z,9.5
2022-12-20T21:47:06.896Z,9.5
2022-12-20T21:49:06.530Z,9.4
2022-12-20T21:53:12.873Z,9.4
2022-12-20T21:59:08.312Z,9.3
2022-12-20T22:01:08.153Z,9.4
2022-12-20T22:03:07.740Z,9.4
2022-12-20T22:15:09.102Z,9.3
2022-12-20T22:17:08.801Z,9.4
2022-12-20T22:19:11.912Z,9.3
2022-12-20T22:21:11.641Z,9.2
2022-12-20T22:23:11.279Z,9.2
2022-12-20T22:25:10.943Z,9.2
2022-12-20T22:27:11.613Z,9.3
2022-12-20T22:29:10.340Z,9.3
2022-12-20T22:31:10.095Z,9.2
2022-12-20T22:33:13.095Z,9.2
2022-12-20T22:35:16.429Z,9.2
2022-12-20T22:39:31.837Z,9.1
2022-12-20T22:41:31.511Z,9.2
2022-12-20T22:43:31.199Z,9.2
2022-12-20T22:45:34.325Z,9
2022-12-20T22:47:33.967Z,9.1
2022-12-20T22:51:33.599Z,8.9
2022-12-20T22:53:32.999Z,9
2022-12-20T22:55:32.664Z,9.1
2022-12-20T22:57:32.371Z,8.9
2022-12-20T22:59:35.451Z,9.1
2022-12-20T23:01:35.237Z,9
2022-12-20T23:03:35.027Z,9.1
2022-12-20T23:07:34.178Z,9
2022-12-20T23:09:33.901Z,9.1
2022-12-20T23:11:33.589Z,9
2022-12-20T23:13:36.650Z,9.1
2022-12-20T23:15:36.350Z,8.9
2022-12-20T23:17:36.027Z,9
2022-12-20T23:19:35.743Z,9
2022-12-20T23:21:35.419Z,9
2022-12-20T23:23:35.115Z,9
2022-12-20T23:25:34.804Z,9.1
2022-12-20T23:27:37.863Z,9.1
2022-12-20T23:29:37.520Z,9
2022-12-20T23:31:37.278Z,9.1
2022-12-20T23:32:38.767Z,9
2022-12-20T23:34:38.482Z,9
2022-12-20T23:36:38.155Z,9
2022-12-20T23:38:37.786Z,9
2022-12-20T23:40:40.907Z,8.9
2022-12-20T23:42:40.561Z,9
2022-12-20T23:44:40.273Z,9.1
2022-12-20T23:50:39.293Z,8.9
2022-12-20T23:52:38.964Z,9
2022-12-20T23:56:41.749Z,9
